Terminal Aerodrome Forecast
Issued by NWS

Home | Current Version | Previous Version | Text Only | Print | Product List | Glossary On
Versions: 1 2 3 4 5 6 7 8 9 10 11 12 13 14 15
000
FTUS43 KAPX 010531
TAFTVC
TAF
KTVC 010531Z 0106/0206 14010KT P6SM SCT250
     FM011200 14010KT P6SM VCSH BKN120
     FM011300 14010KT P6SM VCTS BKN100CB
     FM011800 16010KT P6SM SHRA BKN060
     FM012300 19007KT P6SM SHRA BKN090
     FM020000 19006KT P6SM VCSH BKN100=

USA.gov is the U.S. government's official web portal to all federal, state and local government web resources and services.